createdAt,value
2019-05-02T00:02:10.051Z,21.87
2019-05-02T00:04:46.653Z,25.37
2019-05-02T00:07:20.125Z,26.57
2019-05-02T00:09:50.942Z,20.30
2019-05-02T00:12:22.529Z,19.57
2019-05-02T00:14:56.579Z,22.53
2019-05-02T00:17:28.079Z,20.50
2019-05-02T00:19:59.372Z,20.00
2019-05-02T00:22:30.686Z,19.43
2019-05-02T00:25:01.632Z,20.83
2019-05-02T00:27:38.881Z,20.07
2019-05-02T00:30:11.941Z,19.40
2019-05-02T00:32:44.332Z,17.97
2019-05-02T00:35:16.266Z,21.03
2019-05-02T00:37:49.278Z,18.03
2019-05-02T00:40:25.870Z,20.37
2019-05-02T00:42:59.582Z,20.23
2019-05-02T00:45:30.630Z,19.70
2019-05-02T00:48:07.139Z,17.63
2019-05-02T00:50:40.684Z,21.17
2019-05-02T00:53:13.470Z,19.47
2019-05-02T00:55:44.576Z,22.17
2019-05-02T00:58:15.830Z,22.20
2019-05-02T01:01:08.347Z,22.03
2019-05-02T01:03:40.965Z,20.50
2019-05-02T01:06:16.952Z,20.83
2019-05-02T01:08:47.826Z,19.83
2019-05-02T01:11:20.325Z,22.10
2019-05-02T01:13:55.875Z,20.90
2019-05-02T01:16:24.238Z,17.57
2019-05-02T01:18:55.189Z,19.57
2019-05-02T01:21:29.262Z,20.60
2019-05-02T01:24:03.010Z,20.13
2019-05-02T01:26:37.091Z,21.37
2019-05-02T01:29:15.817Z,19.93
2019-05-02T01:31:57.423Z,20.27
2019-05-02T01:34:59.630Z,20.17
2019-05-02T01:37:51.001Z,20.27
2019-05-02T01:40:22.444Z,19.83
2019-05-02T01:42:57.519Z,20.57
2019-05-02T01:45:28.648Z,22.87
2019-05-02T01:47:59.616Z,18.63
2019-05-02T01:50:33.609Z,20.97
2019-05-02T01:53:03.379Z,18.00
2019-05-02T01:55:35.097Z,19.00
2019-05-02T01:58:06.278Z,21.13
2019-05-02T02:00:40.935Z,20.30
2019-05-02T02:03:10.416Z,19.53
2019-05-02T02:05:41.532Z,17.87
2019-05-02T02:08:12.774Z,20.93
2019-05-02T02:10:44.200Z,20.53
2019-05-02T02:13:15.288Z,21.07
2019-05-02T02:15:46.384Z,20.77
2019-05-02T02:18:22.353Z,22.67
2019-05-02T02:21:01.297Z,20.93
2019-05-02T02:23:56.080Z,22.80
2019-05-02T02:26:27.133Z,20.70
2019-05-02T02:28:58.477Z,22.13
2019-05-02T02:31:29.525Z,21.23
2019-05-02T02:34:00.625Z,18.80
2019-05-02T02:36:34.821Z,19.43
2019-05-02T02:39:13.497Z,21.63
2019-05-02T02:41:39.373Z,22.00
2019-05-02T02:44:33.543Z,23.17
2019-05-02T02:47:00.871Z,18.23
2019-05-02T02:49:32.282Z,20.47
2019-05-02T02:52:04.869Z,20.23
2019-05-02T02:54:42.745Z,23.57
2019-05-02T02:57:20.062Z,23.80
2019-05-02T02:59:44.267Z,24.23
2019-05-02T03:02:15.279Z,23.17
2019-05-02T03:04:46.614Z,23.33
2019-05-02T03:07:25.362Z,26.77
2019-05-02T03:09:52.524Z,25.47
2019-05-02T03:12:46.537Z,22.93
2019-05-02T03:15:27.869Z,24.00
2019-05-02T03:18:00.322Z,23.50
2019-05-02T03:20:40.719Z,21.27
2019-05-02T03:23:08.166Z,21.17
2019-05-02T03:25:50.656Z,21.30
2019-05-02T03:28:18.603Z,20.97
2019-05-02T03:30:50.427Z,21.57
2019-05-02T03:33:22.045Z,19.37
2019-05-02T03:35:53.200Z,20.70
2019-05-02T03:38:32.401Z,22.63
2019-05-02T03:41:00.388Z,23.33
2019-05-02T03:43:32.528Z,26.83
2019-05-02T03:46:03.954Z,23.80
2019-05-02T03:48:38.070Z,21.27
2019-05-02T03:51:19.699Z,22.13
2019-05-02T03:53:45.120Z,23.77
2019-05-02T03:56:17.928Z,24.77
2019-05-02T03:58:56.372Z,22.43
2019-05-02T04:01:25.185Z,22.03
2019-05-02T04:04:00.078Z,21.23
2019-05-02T04:06:32.274Z,19.60
2019-05-02T04:09:03.800Z,23.50
2019-05-02T04:11:38.990Z,26.10
2019-05-02T04:14:15.889Z,23.50
2019-05-02T04:16:48.492Z,23.47
2019-05-02T04:19:28.615Z,20.43
2019-05-02T04:22:01.458Z,26.07
2019-05-02T04:24:30.191Z,21.57
2019-05-02T04:27:01.361Z,25.97
2019-05-02T04:29:34.690Z,25.13
2019-05-02T04:32:11.677Z,23.87
2019-05-02T04:34:41.745Z,22.70
2019-05-02T04:37:13.177Z,24.40
2019-05-02T04:39:49.141Z,27.20
2019-05-02T04:42:23.419Z,24.73
2019-05-02T04:45:20.633Z,24.43
2019-05-02T04:47:39.031Z,25.37
2019-05-02T04:50:18.267Z,24.00
2019-05-02T04:52:51.316Z,24.23
2019-05-02T04:55:28.015Z,27.40
2019-05-02T04:57:53.662Z,27.33
2019-05-02T05:00:29.036Z,25.00
2019-05-02T05:03:07.221Z,24.10
2019-05-02T05:05:40.254Z,24.73
2019-05-02T05:08:11.029Z,31.53
2019-05-02T05:10:45.039Z,24.03
2019-05-02T05:13:22.800Z,27.00
2019-05-02T05:15:52.173Z,25.53
2019-05-02T05:18:24.240Z,25.70
2019-05-02T05:20:55.169Z,22.17
2019-05-02T05:23:56.247Z,20.83
2019-05-02T05:26:28.264Z,21.87
2019-05-02T05:28:59.371Z,20.70
2019-05-02T05:31:31.450Z,21.23
2019-05-02T05:34:03.310Z,21.10
2019-05-02T05:36:34.999Z,22.83
2019-05-02T05:39:10.135Z,25.63
2019-05-02T05:41:42.776Z,25.40
2019-05-02T05:44:12.903Z,26.00
2019-05-02T05:46:48.889Z,28.37
2019-05-02T05:49:21.777Z,27.33
2019-05-02T05:52:02.239Z,20.90
2019-05-02T05:54:33.051Z,21.27
2019-05-02T05:57:07.468Z,27.70
2019-05-02T05:59:38.364Z,29.53
2019-05-02T06:02:14.450Z,24.87
2019-05-02T06:04:44.039Z,30.13
2019-05-02T06:07:15.211Z,30.67
2019-05-02T06:09:46.029Z,29.60
2019-05-02T06:12:17.051Z,36.03
2019-05-02T06:14:48.423Z,34.60
2019-05-02T06:17:23.022Z,56.73
2019-05-02T06:19:57.047Z,36.10
2019-05-02T06:22:27.994Z,38.40
2019-05-02T06:25:01.849Z,36.23
2019-05-02T06:27:33.007Z,34.00
2019-05-02T06:30:05.018Z,40.07
2019-05-02T06:32:36.227Z,38.70
2019-05-02T06:35:08.086Z,39.37
2019-05-02T06:37:40.743Z,40.67
2019-05-02T06:40:15.267Z,37.70
2019-05-02T06:42:46.390Z,38.23
2019-05-02T06:45:19.579Z,39.70
2019-05-02T06:48:01.124Z,41.07
2019-05-02T06:50:42.133Z,38.20
2019-05-02T06:53:20.012Z,43.13
2019-05-02T06:55:52.673Z,55.03
2019-05-02T06:58:29.725Z,58.23
2019-05-02T07:01:03.832Z,63.50
2019-05-02T07:03:34.964Z,60.17
2019-05-02T07:06:09.154Z,63.03
2019-05-02T07:08:48.234Z,61.00
2019-05-02T07:11:19.583Z,58.67
2019-05-02T07:14:11.820Z,58.20
2019-05-02T07:16:40.648Z,54.37
2019-05-02T07:19:35.418Z,58.70
2019-05-02T07:22:08.038Z,56.60
2019-05-02T07:24:43.540Z,61.07
2019-05-02T07:27:14.215Z,59.97
2019-05-02T07:29:57.774Z,68.17
2019-05-02T07:32:26.783Z,59.30
2019-05-02T07:35:03.691Z,63.47
2019-05-02T07:37:37.010Z,63.70
2019-05-02T07:40:12.036Z,57.60
2019-05-02T07:42:45.211Z,63.43
2019-05-02T07:45:18.404Z,61.30
2019-05-02T07:47:55.331Z,58.77
2019-05-02T07:50:26.431Z,55.47
2019-05-02T07:53:04.368Z,53.40
2019-05-02T07:55:40.652Z,57.37
2019-05-02T07:58:09.978Z,59.97
2019-05-02T08:00:41.511Z,55.13
2019-05-02T08:03:12.865Z,52.97
2019-05-02T08:05:44.555Z,52.60
2019-05-02T08:08:15.377Z,52.03
2019-05-02T08:10:46.775Z,49.00
2019-05-02T08:13:19.477Z,50.63
2019-05-02T08:15:52.284Z,51.10
2019-05-02T08:18:25.046Z,54.87
2019-05-02T08:20:57.356Z,53.80
2019-05-02T08:23:33.924Z,48.93
2019-05-02T08:26:21.479Z,44.13
2019-05-02T08:29:03.388Z,48.63
2019-05-02T08:31:34.398Z,43.97
2019-05-02T08:34:14.504Z,40.77
2019-05-02T08:36:38.602Z,40.73
2019-05-02T08:39:10.011Z,45.47
2019-05-02T08:41:44.197Z,39.10
2019-05-02T08:44:16.979Z,34.17
2019-05-02T08:46:56.768Z,37.83
2019-05-02T08:49:31.788Z,36.00
2019-05-02T08:52:05.293Z,39.97
2019-05-02T08:54:50.661Z,41.50
2019-05-02T08:57:30.013Z,41.90
2019-05-02T09:00:02.749Z,32.00
2019-05-02T09:02:41.705Z,37.80
2019-05-02T09:05:14.383Z,29.47
2019-05-02T09:07:46.583Z,27.93
2019-05-02T09:10:21.763Z,29.80
2019-05-02T09:12:53.203Z,28.07
2019-05-02T09:15:27.235Z,29.87
2019-05-02T09:18:02.845Z,27.20
2019-05-02T09:20:39.688Z,26.47
2019-05-02T09:23:14.685Z,26.53
2019-05-02T09:25:48.270Z,24.63
2019-05-02T09:28:22.641Z,22.77
2019-05-02T09:31:00.390Z,21.33
2019-05-02T09:33:42.496Z,22.77
2019-05-02T09:36:11.914Z,21.10
2019-05-02T09:38:43.615Z,23.03
2019-05-02T09:41:22.110Z,21.77
2019-05-02T09:43:57.616Z,22.73
2019-05-02T09:46:38.373Z,18.93
2019-05-02T09:49:22.177Z,20.63
2019-05-02T09:51:59.137Z,19.90
2019-05-02T09:54:37.083Z,22.00
2019-05-02T09:57:12.098Z,20.70
2019-05-02T09:59:50.609Z,21.67
2019-05-02T10:02:19.654Z,19.17
2019-05-02T10:04:52.407Z,20.17
2019-05-02T10:07:23.867Z,21.57
2019-05-02T10:09:57.632Z,20.47
2019-05-02T10:12:27.992Z,21.03
2019-05-02T10:14:59.528Z,19.53
2019-05-02T10:17:32.201Z,24.30
2019-05-02T10:20:07.176Z,20.73
2019-05-02T10:22:43.855Z,19.80
2019-05-02T10:25:17.917Z,17.63
2019-05-02T10:27:53.979Z,16.13
2019-05-02T10:30:35.561Z,22.87
2019-05-02T10:33:17.572Z,20.47
2019-05-02T10:35:53.200Z,17.30
2019-05-02T10:38:28.100Z,17.53
2019-05-02T10:41:31.749Z,16.33
2019-05-02T10:44:54.419Z,18.83
2019-05-02T10:47:36.611Z,18.43
2019-05-02T10:50:22.283Z,19.60
2019-05-02T10:53:03.487Z,20.37
2019-05-02T10:55:35.588Z,23.23
2019-05-02T10:58:07.001Z,17.37
2019-05-02T11:00:45.727Z,18.93
2019-05-02T11:03:37.906Z,17.63
2019-05-02T11:06:24.122Z,18.90
2019-05-02T11:09:03.120Z,18.70
2019-05-02T11:11:42.582Z,17.57
2019-05-02T11:14:25.120Z,15.03
2019-05-02T11:17:17.978Z,16.20
2019-05-02T11:20:01.800Z,15.50
2019-05-02T11:22:42.767Z,16.33
2019-05-02T11:25:14.793Z,14.70
2019-05-02T11:27:57.322Z,16.67
2019-05-02T11:30:33.845Z,13.73
2019-05-02T11:33:04.622Z,14.00
2019-05-02T11:35:48.906Z,14.07
2019-05-02T11:38:41.110Z,13.70
2019-05-02T11:40:53.324Z,13.37
2019-05-02T11:43:27.807Z,14.70
2019-05-02T11:46:05.881Z,15.53
2019-05-02T11:48:33.842Z,19.03
2019-05-02T11:51:07.322Z,15.60
2019-05-02T11:53:42.538Z,13.53
2019-05-02T11:56:22.049Z,12.77
2019-05-02T11:58:53.055Z,13.30
2019-05-02T12:01:35.819Z,15.93
2019-05-02T12:03:57.474Z,15.03
2019-05-02T12:06:28.664Z,16.77
2019-05-02T12:09:04.491Z,15.57
2019-05-02T12:11:35.846Z,15.17
2019-05-02T12:14:09.701Z,17.73
2019-05-02T12:16:40.549Z,16.67
2019-05-02T12:19:14.839Z,15.30
2019-05-02T12:21:57.983Z,15.93
2019-05-02T12:24:29.108Z,15.03
2019-05-02T12:27:03.234Z,19.37
2019-05-02T12:29:34.540Z,16.50
2019-05-02T12:32:18.914Z,15.00
2019-05-02T12:34:49.613Z,18.43
2019-05-02T12:37:23.388Z,15.43
2019-05-02T12:39:54.696Z,13.07
2019-05-02T12:42:25.794Z,12.57
2019-05-02T12:44:57.514Z,15.57
2019-05-02T12:47:28.505Z,12.30
2019-05-02T12:49:59.506Z,13.80
2019-05-02T12:52:32.061Z,12.20
2019-05-02T12:55:08.829Z,13.10
2019-05-02T12:57:43.079Z,14.60
2019-05-02T13:00:22.228Z,19.87
2019-05-02T13:03:15.634Z,15.23
2019-05-02T13:05:46.695Z,16.23
2019-05-02T13:08:18.292Z,14.63
2019-05-02T13:11:16.918Z,13.37
2019-05-02T13:13:53.227Z,14.80
2019-05-02T13:16:29.061Z,14.07
2019-05-02T13:19:04.495Z,17.73
2019-05-02T13:21:45.227Z,15.27
2019-05-02T13:24:29.884Z,16.47
2019-05-02T13:27:05.369Z,17.70
2019-05-02T13:29:36.351Z,17.43
2019-05-02T13:32:23.373Z,14.47
2019-05-02T13:35:27.876Z,14.07
2019-05-02T13:38:32.878Z,13.53
2019-05-02T13:41:32.147Z,13.17
2019-05-02T13:44:10.245Z,15.90
2019-05-02T13:46:41.963Z,15.77
2019-05-02T13:49:15.832Z,12.07
2019-05-02T13:51:49.032Z,15.37
2019-05-02T13:54:22.114Z,16.80
2019-05-02T13:56:53.526Z,16.57
2019-05-02T13:59:24.510Z,17.90
2019-05-02T14:02:12.268Z,17.13
2019-05-02T14:04:44.436Z,17.57
2019-05-02T14:07:26.259Z,16.93
2019-05-02T14:10:13.507Z,18.27
2019-05-02T14:12:52.811Z,19.43
2019-05-02T14:15:29.097Z,17.50
2019-05-02T14:18:02.330Z,21.17
2019-05-02T14:20:37.640Z,18.87
2019-05-02T14:23:17.523Z,17.57
2019-05-02T14:25:48.330Z,17.17
2019-05-02T14:28:19.293Z,17.67
2019-05-02T14:30:52.473Z,16.60
2019-05-02T14:33:26.627Z,19.30
2019-05-02T14:35:58.488Z,20.53
2019-05-02T14:38:32.138Z,17.60
2019-05-02T14:41:14.465Z,15.37
2019-05-02T14:43:53.582Z,16.90
2019-05-02T14:46:38.085Z,18.93
2019-05-02T14:49:12.078Z,20.70
2019-05-02T14:51:49.919Z,19.17
2019-05-02T14:54:28.272Z,26.97
2019-05-02T14:57:32.648Z,24.80
2019-05-02T15:00:05.307Z,22.23
2019-05-02T15:02:49.464Z,19.03
2019-05-02T15:05:29.521Z,20.73
2019-05-02T15:08:02.477Z,21.60
2019-05-02T15:10:48.941Z,20.67
2019-05-02T15:13:08.662Z,18.07
2019-05-02T15:15:44.798Z,20.73
2019-05-02T15:18:22.707Z,18.30
2019-05-02T15:20:53.595Z,19.40
2019-05-02T15:23:28.582Z,21.17
2019-05-02T15:26:02.972Z,19.37
2019-05-02T15:28:39.320Z,19.40
2019-05-02T15:31:19.010Z,18.57
2019-05-02T15:34:05.083Z,20.67
2019-05-02T15:36:42.299Z,22.27
2019-05-02T15:41:56.942Z,20.00
2019-05-02T15:44:35.917Z,22.23
2019-05-02T15:47:12.428Z,21.87
2019-05-02T15:49:50.327Z,18.30
2019-05-02T15:52:27.818Z,21.00
2019-05-02T15:55:05.130Z,22.20
2019-05-02T15:57:43.608Z,19.67
2019-05-02T16:00:25.774Z,20.17
2019-05-02T16:03:04.395Z,18.50
2019-05-02T16:05:45.692Z,17.63
2019-05-02T16:08:17.157Z,18.13
2019-05-02T16:10:53.611Z,20.90
2019-05-02T16:13:25.312Z,19.70
2019-05-02T16:15:57.176Z,18.83
2019-05-02T16:18:29.240Z,17.90
2019-05-02T16:21:12.511Z,19.00
2019-05-02T16:24:10.797Z,21.10
2019-05-02T16:26:46.798Z,24.77
2019-05-02T16:29:26.622Z,22.27
2019-05-02T16:32:13.281Z,16.57
2019-05-02T16:34:58.246Z,17.57
2019-05-02T16:37:34.479Z,16.00
2019-05-02T16:40:09.483Z,20.73
2019-05-02T16:42:42.839Z,21.80
2019-05-02T16:45:22.179Z,23.13
2019-05-02T16:48:00.140Z,20.07
2019-05-02T16:50:44.971Z,20.57
2019-05-02T16:53:22.564Z,17.47
2019-05-02T16:55:53.662Z,19.17
2019-05-02T16:58:33.407Z,21.27
2019-05-02T17:01:32.767Z,27.90
2019-05-02T17:04:06.925Z,18.10
2019-05-02T17:06:44.272Z,18.13
2019-05-02T17:09:38.462Z,18.07
2019-05-02T17:12:11.934Z,16.93
2019-05-02T17:15:07.695Z,21.00
2019-05-02T17:17:42.462Z,22.03
2019-05-02T17:20:16.770Z,18.80
2019-05-02T17:22:52.818Z,17.07
2019-05-02T17:25:27.013Z,17.03
2019-05-02T17:28:09.948Z,20.50
2019-05-02T17:30:44.209Z,16.57
2019-05-02T17:33:17.763Z,18.40
2019-05-02T17:35:53.747Z,18.80
2019-05-02T17:38:29.061Z,15.60
2019-05-02T17:41:15.729Z,15.27
2019-05-02T17:44:06.529Z,15.03
2019-05-02T17:46:42.840Z,18.90
2019-05-02T17:49:15.984Z,13.97
2019-05-02T17:52:10.253Z,14.50
2019-05-02T17:54:42.360Z,15.73
2019-05-02T17:57:16.257Z,12.90
2019-05-02T17:59:51.907Z,17.53
2019-05-02T18:02:23.360Z,14.43
2019-05-02T18:04:56.006Z,16.67
2019-05-02T18:07:36.137Z,13.13
2019-05-02T18:10:14.474Z,15.03
2019-05-02T18:12:56.045Z,14.47
2019-05-02T18:15:24.530Z,18.03
2019-05-02T18:18:06.444Z,14.90
2019-05-02T18:20:42.783Z,12.27
2019-05-02T18:23:12.209Z,13.37
2019-05-02T18:25:45.132Z,14.83
2019-05-02T18:28:26.313Z,12.67
2019-05-02T18:30:57.216Z,12.90
2019-05-02T18:33:29.668Z,14.03
2019-05-02T18:36:03.117Z,13.00
2019-05-02T18:38:36.966Z,13.93
2019-05-02T18:41:12.185Z,14.10
2019-05-02T18:43:45.213Z,10.67
2019-05-02T18:46:20.053Z,13.70
2019-05-02T18:48:53.617Z,12.10
2019-05-02T18:51:39.314Z,13.27
2019-05-02T18:54:15.707Z,15.67
2019-05-02T18:57:02.494Z,14.53
2019-05-02T18:59:46.460Z,12.53
2019-05-02T19:02:35.500Z,12.00
2019-05-02T19:05:19.133Z,8.90
2019-05-02T19:07:56.610Z,10.80
2019-05-02T19:10:32.404Z,12.47
2019-05-02T19:13:10.183Z,11.53
2019-05-02T19:15:48.787Z,12.60
2019-05-02T19:18:25.093Z,11.97
2019-05-02T19:21:08.053Z,11.77
2019-05-02T19:23:46.225Z,11.30
2019-05-02T19:26:19.580Z,10.83
2019-05-02T19:29:31.902Z,12.33
2019-05-02T19:32:28.407Z,11.30
2019-05-02T19:35:03.231Z,10.13
2019-05-02T19:37:44.013Z,11.90
2019-05-02T19:40:14.939Z,12.00
2019-05-02T19:42:47.666Z,13.57
2019-05-02T19:45:28.965Z,15.63
2019-05-02T19:48:14.064Z,10.73
2019-05-02T19:50:51.818Z,12.97
2019-05-02T19:53:44.925Z,11.73
2019-05-02T19:56:25.098Z,12.57
2019-05-02T19:59:00.056Z,12.57
2019-05-02T20:01:37.171Z,17.73
2019-05-02T20:04:32.754Z,12.37
2019-05-02T20:07:07.067Z,17.20
2019-05-02T20:09:43.594Z,11.83
2019-05-02T20:12:15.802Z,13.07
2019-05-02T20:14:52.841Z,12.20
2019-05-02T20:17:34.653Z,13.93
2019-05-02T20:20:12.413Z,13.47
2019-05-02T20:22:48.156Z,13.53
2019-05-02T20:25:29.873Z,12.17
2019-05-02T20:28:03.335Z,12.17
2019-05-02T20:30:39.061Z,12.37
2019-05-02T20:33:12.740Z,16.87
2019-05-02T20:35:47.472Z,13.20
2019-05-02T20:38:25.298Z,12.63
2019-05-02T20:41:07.987Z,12.17
2019-05-02T20:43:44.809Z,15.33
2019-05-02T20:46:21.871Z,13.67
2019-05-02T20:48:56.503Z,15.53
2019-05-02T20:51:28.115Z,15.07
2019-05-02T20:54:05.743Z,16.90
2019-05-02T20:56:53.601Z,15.67
2019-05-02T20:59:43.043Z,11.10
2019-05-02T21:02:34.282Z,15.37
2019-05-02T21:05:08.359Z,14.30
2019-05-02T21:08:11.389Z,17.17
2019-05-02T21:11:12.770Z,15.23
2019-05-02T21:13:44.829Z,18.93
2019-05-02T21:16:16.321Z,16.20
2019-05-02T21:19:19.169Z,13.00
2019-05-02T21:21:56.391Z,19.90
2019-05-02T21:24:39.299Z,16.63
2019-05-02T21:27:10.382Z,13.73
2019-05-02T21:29:42.611Z,13.03
2019-05-02T21:32:16.473Z,13.63
2019-05-02T21:34:54.296Z,12.93
2019-05-02T21:37:28.626Z,15.03
2019-05-02T21:40:03.146Z,13.40
2019-05-02T21:42:34.506Z,13.87
2019-05-02T21:45:06.546Z,12.33
2019-05-02T21:47:37.666Z,15.93
2019-05-02T21:50:14.989Z,14.97
2019-05-02T21:53:08.434Z,13.30
2019-05-02T21:55:58.591Z,15.43
2019-05-02T21:58:34.076Z,14.00
2019-05-02T22:01:16.629Z,13.13
2019-05-02T22:03:52.067Z,13.43
2019-05-02T22:06:23.442Z,13.67
2019-05-02T22:09:03.161Z,13.50
2019-05-02T22:11:37.124Z,17.57
2019-05-02T22:14:08.468Z,14.20
2019-05-02T22:16:39.542Z,18.67
2019-05-02T22:19:14.207Z,13.60
2019-05-02T22:21:45.273Z,17.43
2019-05-02T22:24:17.341Z,13.30
2019-05-02T22:26:48.985Z,18.50
2019-05-02T22:29:21.915Z,11.20
2019-05-02T22:31:54.540Z,12.07
2019-05-02T22:34:27.335Z,15.67
2019-05-02T22:37:04.052Z,13.30
2019-05-02T22:39:46.057Z,18.20
2019-05-02T22:42:22.724Z,14.80
2019-05-02T22:44:53.781Z,16.37
2019-05-02T22:47:27.754Z,14.67
2019-05-02T22:49:59.266Z,12.57
2019-05-02T22:52:34.447Z,12.70
2019-05-02T22:55:05.618Z,13.77
2019-05-02T22:57:42.019Z,11.70
2019-05-02T23:00:13.686Z,13.60
2019-05-02T23:02:44.784Z,12.87
2019-05-02T23:05:15.841Z,14.07
2019-05-02T23:07:46.925Z,11.73
2019-05-02T23:10:18.088Z,12.57
2019-05-02T23:12:51.660Z,10.47
2019-05-02T23:15:24.330Z,15.70
2019-05-02T23:17:55.678Z,17.20
2019-05-02T23:20:27.925Z,21.37
2019-05-02T23:22:59.142Z,22.97
2019-05-02T23:25:48.276Z,22.63
2019-05-02T23:28:24.325Z,24.30
2019-05-02T23:30:57.000Z,29.20
2019-05-02T23:33:48.507Z,27.80
2019-05-02T23:36:23.201Z,29.03
2019-05-02T23:38:54.254Z,28.70
2019-05-02T23:41:25.939Z,27.30
2019-05-02T23:43:56.999Z,30.27
2019-05-02T23:46:28.054Z,33.03
2019-05-02T23:48:59.039Z,32.33
2019-05-02T23:51:32.043Z,32.87
2019-05-02T23:54:03.375Z,33.33
2019-05-02T23:56:34.505Z,30.73
2019-05-02T23:59:05.533Z,27.47
